Time;durP1;ratioP1;P1;durP2;ratioP2;P2;SDS_P1;SDS_P2;PMS_P1;PMS_P2;Temp;Humidity;BMP_temperature;BMP_pressure;BME280_temperature;BME280_humidity;BME280_pressure;Samples;Min_cycle;Max_cycle;Signal;HPM_P1;HPM_P2
2022/10/31 00:01:19;;;;;;;11.15;5.15;;;9.50;99.90;;;;;;5077448;28;20027;-72
2022/10/31 00:03:47;;;;;;;8.10;4.13;;;9.50;99.90;;;;;;5078018;28;20321;-72
2022/10/31 00:06:17;;;;;;;13.00;5.43;;;9.40;99.90;;;;;;5077398;28;20024;-72
2022/10/31 00:08:54;;;;;;;14.00;4.55;;;9.40;99.90;;;;;;5077755;28;20308;-72
2022/10/31 00:11:23;;;;;;;13.20;4.95;;;9.40;99.90;;;;;;5077300;28;20126;-72
2022/10/31 00:13:51;;;;;;;10.40;4.45;;;9.40;99.90;;;;;;5077206;28;20464;-72
2022/10/31 00:16:25;;;;;;;11.35;4.80;;;9.40;99.90;;;;;;5077127;28;20025;-72
2022/10/31 00:18:55;;;;;;;9.48;3.65;;;9.40;99.90;;;;;;5077646;28;20016;-72
2022/10/31 00:21:23;;;;;;;15.88;4.85;;;9.30;99.90;;;;;;5077869;28;20436;-72
2022/10/31 00:23:50;;;;;;;16.10;5.05;;;9.30;99.90;;;;;;5077172;28;20020;-72
2022/10/31 00:26:18;;;;;;;13.10;4.30;;;9.40;99.90;;;;;;5077030;28;20021;-72
2022/10/31 00:28:46;;;;;;;14.95;4.65;;;9.40;99.90;;;;;;5077175;28;20035;-72
2022/10/31 00:31:14;;;;;;;10.85;4.45;;;9.40;99.90;;;;;;5076940;28;20021;-72
2022/10/31 00:33:42;;;;;;;9.10;3.65;;;9.30;99.90;;;;;;5076908;28;20017;-72
2022/10/31 00:36:16;;;;;;;20.60;5.00;;;9.30;99.90;;;;;;5059616;28;20019;-72
2022/10/31 00:38:44;;;;;;;10.25;4.10;;;9.30;99.90;;;;;;5076950;28;20025;-72
2022/10/31 00:41:13;;;;;;;11.73;4.97;;;9.30;99.90;;;;;;5076840;28;20070;-72
2022/10/31 00:43:40;;;;;;;22.25;5.10;;;9.40;99.90;;;;;;5077400;28;20063;-72
2022/10/31 00:46:07;;;;;;;16.05;4.93;;;9.40;99.90;;;;;;5076700;28;20056;-72
2022/10/31 00:48:34;;;;;;;12.02;4.40;;;9.40;99.90;;;;;;5077422;28;20024;-72
2022/10/31 00:51:01;;;;;;;9.00;4.00;;;9.40;99.90;;;;;;5076989;28;20031;-72
2022/10/31 00:53:29;;;;;;;8.27;4.28;;;9.40;99.90;;;;;;5076615;28;20024;-72
2022/10/31 00:55:57;;;;;;;9.65;4.32;;;9.40;99.90;;;;;;5076630;28;20021;-72
2022/10/31 00:58:24;;;;;;;15.77;4.15;;;9.40;99.90;;;;;;5056369;28;20033;-72
2022/10/31 01:00:54;;;;;;;13.63;4.85;;;9.40;99.90;;;;;;5056512;28;20143;-72
2022/10/31 01:03:28;;;;;;;11.00;4.93;;;9.30;99.90;;;;;;5056876;28;20025;-72
2022/10/31 01:06:04;;;;;;;9.88;3.95;;;9.30;99.90;;;;;;5056413;28;20417;-72
2022/10/31 01:08:33;;;;;;;12.73;4.45;;;9.30;99.90;;;;;;5057177;28;20428;-72
2022/10/31 01:11:06;;;;;;;15.88;4.68;;;9.20;99.90;;;;;;5056485;28;20029;-72
2022/10/31 01:13:34;;;;;;;12.70;3.80;;;9.20;99.90;;;;;;5056663;28;20017;-72
2022/10/31 01:16:02;;;;;;;14.70;4.22;;;9.20;99.90;;;;;;5056354;28;20425;-72
2022/10/31 01:18:29;;;;;;;9.65;4.57;;;9.20;99.90;;;;;;5055480;28;20033;-72
2022/10/31 01:21:11;;;;;;;9.45;4.40;;;9.20;99.90;;;;;;5056326;28;20028;-72
2022/10/31 01:23:38;;;;;;;13.65;5.15;;;9.20;99.90;;;;;;5056347;28;20029;-72
2022/10/31 01:26:18;;;;;;;14.18;5.30;;;9.20;99.90;;;;;;5056854;28;20056;-72
2022/10/31 01:28:48;;;;;;;14.80;4.50;;;9.20;99.90;;;;;;5056398;28;20049;-72
2022/10/31 01:31:17;;;;;;;11.57;4.70;;;9.10;99.90;;;;;;5056191;28;20032;-72
2022/10/31 01:33:45;;;;;;;12.77;4.50;;;9.10;99.90;;;;;;5056479;28;20095;-72
2022/10/31 01:36:14;;;;;;;10.27;4.20;;;9.20;99.90;;;;;;5055195;28;20029;-72
2022/10/31 01:38:41;;;;;;;15.27;4.70;;;9.10;99.90;;;;;;5056910;28;20017;-72
2022/10/31 01:41:11;;;;;;;10.52;4.03;;;9.10;99.90;;;;;;5056166;28;20017;-72
2022/10/31 01:43:53;;;;;;;7.22;4.10;;;9.00;99.90;;;;;;5056144;28;20032;-72
2022/10/31 01:46:28;;;;;;;10.18;3.90;;;9.00;99.90;;;;;;5056063;28;20021;-72
2022/10/31 01:48:57;;;;;;;12.52;4.10;;;8.90;99.90;;;;;;5056827;28;20021;-72
2022/10/31 01:51:34;;;;;;;7.93;3.95;;;8.90;99.90;;;;;;5056110;28;20025;-72
2022/10/31 01:54:08;;;;;;;9.35;4.15;;;8.80;99.90;;;;;;5054912;28;20070;-72
2022/10/31 01:56:42;;;;;;;9.98;4.13;;;8.80;99.90;;;;;;5060920;28;20041;-72
2022/10/31 01:59:13;;;;;;;10.27;4.38;;;8.80;99.90;;;;;;5076207;28;20059;-72
2022/10/31 02:01:41;;;;;;;10.85;5.05;;;8.70;99.90;;;;;;5076007;28;20052;-72
2022/10/31 02:04:08;;;;;;;8.38;4.40;;;8.70;99.90;;;;;;5076005;28;20028;-72
2022/10/31 02:06:48;;;;;;;12.18;4.40;;;8.70;99.90;;;;;;5075913;28;20425;-72
2022/10/31 02:09:16;;;;;;;13.32;5.22;;;8.70;99.90;;;;;;5077967;28;20021;-72
2022/10/31 02:11:45;;;;;;;12.63;5.10;;;8.70;99.90;;;;;;5079655;28;20028;-72
2022/10/31 02:14:12;;;;;;;12.27;5.30;;;8.70;99.90;;;;;;5078525;28;20483;-72
2022/10/31 02:16:40;;;;;;;11.57;5.18;;;8.70;99.90;;;;;;5079546;28;20104;-72
2022/10/31 02:19:14;;;;;;;14.20;5.15;;;8.70;99.90;;;;;;5079798;28;20023;-72
2022/10/31 02:22:05;;;;;;;11.80;5.35;;;8.70;99.90;;;;;;5061708;28;20333;-72
2022/10/31 02:25:09;;;;;;;10.57;5.05;;;8.70;99.90;;;;;;5079695;28;20316;-72
2022/10/31 02:27:54;;;;;;;8.38;5.00;;;8.60;99.90;;;;;;5079622;28;20024;-72
2022/10/31 02:30:38;;;;;;;21.70;4.88;;;8.60;99.90;;;;;;5061522;28;20393;-72
2022/10/31 02:33:31;;;;;;;15.32;4.15;;;8.60;99.90;;;;;;5079354;28;20052;-72
2022/10/31 02:36:24;;;;;;;9.85;4.40;;;8.50;99.90;;;;;;5079493;28;20428;-72
2022/10/31 02:39:10;;;;;;;13.68;4.45;;;8.50;99.90;;;;;;5079185;28;20036;-72
2022/10/31 02:42:06;;;;;;;9.85;4.82;;;8.50;99.90;;;;;;5061272;28;20024;-72
2022/10/31 02:44:41;;;;;;;10.52;4.85;;;8.40;99.90;;;;;;5079463;28;20072;-72
2022/10/31 02:47:23;;;;;;;12.23;6.15;;;8.40;99.90;;;;;;5079537;28;20035;-72
2022/10/31 02:50:06;;;;;;;15.98;5.93;;;8.40;99.90;;;;;;5078987;28;20025;-72
2022/10/31 02:52:34;;;;;;;13.05;5.50;;;8.40;99.90;;;;;;5078820;28;20032;-72
2022/10/31 02:55:34;;;;;;;16.00;5.63;;;8.40;99.90;;;;;;5079047;28;20075;-72
2022/10/31 02:58:15;;;;;;;17.83;6.20;;;8.40;99.90;;;;;;5078400;28;20041;-72
2022/10/31 03:01:21;;;;;;;16.00;6.53;;;8.40;99.90;;;;;;5078700;28;20024;-72
2022/10/31 03:04:13;;;;;;;17.52;7.80;;;8.40;99.90;;;;;;5069991;28;20036;-72
2022/10/31 03:06:47;;;;;;;32.45;9.07;;;8.40;99.90;;;;;;5078549;28;20021;-72
2022/10/31 03:09:48;;;;;;;15.63;6.45;;;8.30;99.90;;;;;;5078892;28;20025;-72
2022/10/31 03:12:33;;;;;;;14.80;5.75;;;8.30;99.90;;;;;;5078425;28;20074;-72
2022/10/31 03:15:14;;;;;;;16.70;6.13;;;8.30;99.90;;;;;;5078546;28;20043;-72
2022/10/31 03:18:01;;;;;;;13.15;5.55;;;8.20;99.90;;;;;;5078978;28;20028;-72
2022/10/31 03:20:39;;;;;;;16.85;7.30;;;8.20;99.90;;;;;;5078342;28;20023;-72
2022/10/31 03:23:12;;;;;;;19.55;7.00;;;8.20;99.90;;;;;;5078318;28;20024;-72
2022/10/31 03:25:41;;;;;;;22.20;8.63;;;8.20;99.90;;;;;;5078951;28;20347;-72
2022/10/31 03:28:12;;;;;;;24.90;9.80;;;8.10;99.90;;;;;;5078721;28;20107;-72
2022/10/31 03:30:42;;;;;;;29.10;11.80;;;8.20;99.90;;;;;;5078213;28;20029;-72
2022/10/31 03:33:16;;;;;;;31.45;12.60;;;8.20;99.90;;;;;;5078040;28;20025;-72
2022/10/31 03:35:50;;;;;;;24.77;11.07;;;8.30;99.90;;;;;;5078003;28;20078;-72
2022/10/31 03:38:19;;;;;;;32.95;11.70;;;8.30;99.90;;;;;;5077952;28;20416;-72
2022/10/31 03:40:50;;;;;;;25.90;11.38;;;8.20;99.90;;;;;;5077919;28;20320;-72
2022/10/31 03:43:29;;;;;;;31.58;11.68;;;8.20;99.90;;;;;;5078595;28;20094;-72
2022/10/31 03:45:57;;;;;;;39.63;13.10;;;8.20;99.90;;;;;;5060045;28;20020;-72
2022/10/31 03:48:25;;;;;;;34.05;11.43;;;8.20;99.90;;;;;;5077781;28;20363;-72
2022/10/31 03:51:09;;;;;;;28.42;10.88;;;8.20;99.90;;;;;;5078285;28;20056;-72
2022/10/31 03:53:52;;;;;;;30.25;10.38;;;8.20;99.90;;;;;;5077749;28;20050;-72
2022/10/31 03:56:42;;;;;;;27.48;10.52;;;8.20;99.90;;;;;;5077366;28;20453;-72
2022/10/31 03:59:30;;;;;;;26.55;10.55;;;8.20;99.90;;;;;;5077871;28;20020;-72
2022/10/31 04:02:04;;;;;;;24.23;10.35;;;8.20;99.90;;;;;;5077521;28;20099;-72
2022/10/31 04:04:33;;;;;;;23.35;9.48;;;8.10;99.90;;;;;;5077658;28;20088;-72
2022/10/31 04:07:01;;;;;;;23.80;9.45;;;8.10;99.90;;;;;;5077434;28;20017;-71
2022/10/31 04:09:34;;;;;;;19.45;9.98;;;8.10;99.90;;;;;;5059663;28;20074;-72
2022/10/31 04:12:06;;;;;;;20.30;8.10;;;8.10;99.90;;;;;;5077346;28;20100;-72
2022/10/31 04:14:34;;;;;;;17.65;8.73;;;8.10;99.90;;;;;;5077425;28;20024;-72
2022/10/31 04:17:04;;;;;;;24.35;9.73;;;8.00;99.90;;;;;;5077531;28;20039;-72
2022/10/31 04:19:33;;;;;;;24.15;10.15;;;8.00;99.90;;;;;;5076150;28;20025;-72
2022/10/31 04:22:01;;;;;;;31.63;10.93;;;8.00;99.90;;;;;;5077041;28;20048;-72
2022/10/31 04:24:29;;;;;;;21.10;9.30;;;7.90;99.90;;;;;;5077237;28;20077;-72
2022/10/31 04:26:57;;;;;;;20.08;9.40;;;7.90;99.90;;;;;;5077635;28;20027;-72
2022/10/31 04:29:24;;;;;;;19.80;10.48;;;7.90;99.90;;;;;;5077008;28;20464;-71
2022/10/31 04:31:52;;;;;;;17.40;8.98;;;7.90;99.90;;;;;;5077813;28;20059;-72
2022/10/31 04:34:19;;;;;;;29.48;10.68;;;7.90;99.90;;;;;;5076526;28;20023;-72
2022/10/31 04:36:47;;;;;;;24.45;11.60;;;7.80;99.90;;;;;;5077460;28;20032;-72
2022/10/31 04:39:14;;;;;;;21.00;10.85;;;7.80;99.90;;;;;;5076850;28;20021;-72
2022/10/31 04:41:41;;;;;;;26.92;9.82;;;7.80;99.90;;;;;;5076840;28;20016;-72
2022/10/31 04:44:08;;;;;;;26.23;12.65;;;7.80;99.90;;;;;;5077059;28;20024;-72
2022/10/31 04:46:36;;;;;;;35.38;14.27;;;7.80;99.90;;;;;;5058911;28;20443;-72
2022/10/31 04:49:03;;;;;;;30.58;12.55;;;7.70;99.90;;;;;;5076940;28;20035;-72
2022/10/31 04:51:30;;;;;;;24.77;12.27;;;7.70;99.90;;;;;;5058923;28;20020;-72
2022/10/31 04:53:57;;;;;;;31.08;12.90;;;7.80;99.90;;;;;;5076624;28;20298;-72
2022/10/31 04:56:24;;;;;;;27.08;11.85;;;7.70;99.90;;;;;;5076870;28;20116;-72
2022/10/31 04:58:51;;;;;;;28.23;12.43;;;7.70;99.90;;;;;;5058836;28;20317;-72
2022/10/31 05:01:18;;;;;;;31.60;13.90;;;7.80;99.90;;;;;;5076482;28;20043;-72
2022/10/31 05:03:46;;;;;;;39.35;15.10;;;7.70;99.90;;;;;;5076580;28;20020;-72
2022/10/31 05:06:13;;;;;;;38.30;15.50;;;7.80;99.90;;;;;;5076746;28;20052;-72
2022/10/31 05:08:40;;;;;;;28.10;13.65;;;7.80;99.90;;;;;;5077239;28;20031;-72
2022/10/31 05:11:07;;;;;;;30.85;12.38;;;7.80;99.90;;;;;;5076777;28;20070;-72
2022/10/31 05:13:35;;;;;;;32.85;12.75;;;7.80;99.90;;;;;;5076811;28;20035;-72
2022/10/31 05:16:03;;;;;;;27.90;11.65;;;7.80;99.90;;;;;;5076938;28;20358;-72
2022/10/31 05:18:31;;;;;;;30.27;12.77;;;7.70;99.90;;;;;;5077157;28;20017;-72
2022/10/31 05:20:58;;;;;;;30.98;12.90;;;7.70;99.90;;;;;;5076655;28;20017;-72
2022/10/31 05:23:26;;;;;;;29.55;11.60;;;7.70;99.90;;;;;;5076417;28;20078;-72
2022/10/31 05:25:53;;;;;;;35.10;15.68;;;7.60;99.90;;;;;;5076261;28;20421;-72
2022/10/31 05:28:20;;;;;;;41.60;16.20;;;7.60;99.90;;;;;;5077021;28;20051;-72
2022/10/31 05:30:47;;;;;;;44.78;16.27;;;7.70;99.90;;;;;;5058459;28;20021;-72
2022/10/31 05:33:15;;;;;;;40.72;14.32;;;7.70;99.90;;;;;;5076204;28;20028;-72
2022/10/31 05:35:42;;;;;;;46.17;15.30;;;7.70;99.90;;;;;;5076809;28;20028;-72
2022/10/31 05:38:10;;;;;;;36.53;13.60;;;7.70;99.90;;;;;;5076673;28;20347;-72
2022/10/31 05:40:37;;;;;;;26.67;12.68;;;7.70;99.90;;;;;;5076705;28;20020;-72
2022/10/31 05:43:04;;;;;;;30.98;12.68;;;7.70;99.90;;;;;;5076764;28;20062;-72
2022/10/31 05:45:32;;;;;;;25.50;10.70;;;7.70;99.90;;;;;;5061771;28;20029;-72
2022/10/31 05:48:01;;;;;;;24.95;9.85;;;7.60;99.90;;;;;;5080851;28;20055;-72
2022/10/31 05:50:30;;;;;;;23.85;12.02;;;7.60;99.90;;;;;;5062607;28;20157;-72
2022/10/31 05:53:03;;;;;;;21.25;10.20;;;7.50;99.90;;;;;;5079968;28;20024;-72
2022/10/31 05:55:31;;;;;;;25.90;10.20;;;7.50;99.90;;;;;;5079981;28;20020;-72
2022/10/31 05:57:58;;;;;;;27.35;11.80;;;7.50;99.90;;;;;;5079777;28;20083;-72
2022/10/31 06:00:27;;;;;;;28.85;12.50;;;7.40;99.90;;;;;;5062183;28;20040;-72
2022/10/31 06:03:05;;;;;;;33.15;12.55;;;7.50;99.90;;;;;;5079851;28;20029;-72
2022/10/31 06:05:33;;;;;;;41.10;13.68;;;7.50;99.90;;;;;;5080317;28;20016;-72
2022/10/31 06:08:00;;;;;;;32.08;14.13;;;7.50;99.90;;;;;;5061953;28;20442;-72
2022/10/31 06:10:28;;;;;;;26.95;11.77;;;7.50;99.90;;;;;;5080195;28;20028;-72
2022/10/31 06:12:56;;;;;;;22.00;12.07;;;7.50;99.90;;;;;;5079708;28;20051;-72
2022/10/31 06:15:24;;;;;;;23.27;11.15;;;7.40;99.90;;;;;;5080057;28;20017;-72
2022/10/31 06:18:05;;;;;;;29.73;10.02;;;7.40;99.90;;;;;;5079535;28;20476;-72
2022/10/31 06:20:33;;;;;;;29.38;11.25;;;7.40;99.90;;;;;;5079799;28;20320;-72
2022/10/31 06:23:01;;;;;;;26.08;12.73;;;7.40;99.90;;;;;;5079524;28;20046;-72
2022/10/31 06:25:28;;;;;;;28.55;11.82;;;7.40;99.90;;;;;;5061612;28;20020;-72
2022/10/31 06:27:56;;;;;;;33.90;13.63;;;7.40;99.90;;;;;;5079506;28;20031;-72
2022/10/31 06:30:23;;;;;;;44.30;16.30;;;7.40;99.90;;;;;;5079241;28;20112;-72
2022/10/31 06:32:51;;;;;;;38.75;15.88;;;7.40;99.90;;;;;;5079204;28;20021;-72
2022/10/31 06:35:19;;;;;;;41.97;16.33;;;7.50;99.90;;;;;;5061907;28;20024;-73
2022/10/31 06:37:56;;;;;;;40.67;15.43;;;7.50;99.90;;;;;;5079144;28;20027;-73
2022/10/31 06:40:24;;;;;;;33.33;14.25;;;7.50;99.90;;;;;;5079164;28;20302;-73
2022/10/31 06:43:01;;;;;;;40.17;15.65;;;7.60;99.90;;;;;;5079357;28;20082;-73
2022/10/31 06:45:28;;;;;;;34.53;14.65;;;7.60;99.90;;;;;;5078858;28;20344;-73
2022/10/31 06:47:56;;;;;;;38.88;13.85;;;7.60;99.90;;;;;;5061295;28;20029;-75
2022/10/31 06:50:24;;;;;;;29.10;14.05;;;7.70;99.90;;;;;;5078909;28;20032;-73
2022/10/31 06:52:56;;;;;;;24.10;12.75;;;7.70;99.90;;;;;;5078769;28;20074;-73
2022/10/31 06:55:24;;;;;;;30.67;13.50;;;7.70;99.90;;;;;;5078146;28;20020;-73
2022/10/31 06:57:59;;;;;;;32.20;13.20;;;7.70;99.90;;;;;;5078738;28;20041;-73
2022/10/31 07:00:31;;;;;;;28.83;14.73;;;7.70;99.90;;;;;;5078536;28;20068;-73
2022/10/31 07:03:01;;;;;;;36.22;13.90;;;7.70;99.90;;;;;;5078596;28;20043;-73
2022/10/31 07:05:29;;;;;;;29.75;14.88;;;7.70;99.90;;;;;;5078872;28;20054;-73
2022/10/31 07:07:58;;;;;;;37.13;15.02;;;7.80;99.90;;;;;;5078764;28;20028;-73
2022/10/31 07:10:28;;;;;;;42.05;14.65;;;7.80;99.90;;;;;;5078555;28;20025;-73
2022/10/31 07:13:00;;;;;;;36.92;13.98;;;7.80;99.90;;;;;;5078349;28;20074;-72
2022/10/31 07:15:29;;;;;;;33.45;13.25;;;7.90;99.90;;;;;;5060547;28;20056;-72
2022/10/31 07:18:08;;;;;;;40.35;15.55;;;8.00;99.90;;;;;;5078480;28;20020;-72
2022/10/31 07:20:35;;;;;;;33.75;14.30;;;8.10;99.90;;;;;;5078658;28;20070;-72
2022/10/31 07:23:03;;;;;;;28.67;14.38;;;8.10;99.90;;;;;;5078915;28;20108;-72
2022/10/31 07:25:32;;;;;;;26.92;12.75;;;8.10;99.90;;;;;;5078308;28;20074;-73
2022/10/31 07:27:59;;;;;;;23.75;12.13;;;8.20;99.90;;;;;;5078682;28;20028;-73
2022/10/31 07:30:27;;;;;;;28.05;13.15;;;8.20;99.90;;;;;;5060361;28;20029;-73
2022/10/31 07:32:55;;;;;;;39.63;12.50;;;8.30;99.90;;;;;;5078111;28;20107;-73
2022/10/31 07:35:25;;;;;;;23.30;11.98;;;8.30;99.90;;;;;;5078076;28;20409;-73
2022/10/31 07:37:53;;;;;;;25.85;11.68;;;8.40;99.90;;;;;;5078235;28;20321;-74
2022/10/31 07:40:21;;;;;;;25.67;12.00;;;8.50;99.90;;;;;;5078525;28;20047;-73
2022/10/31 07:42:50;;;;;;;23.70;11.38;;;8.50;99.90;;;;;;5077953;28;20408;-74
2022/10/31 07:45:20;;;;;;;21.92;11.63;;;8.60;99.90;;;;;;5078137;28;20016;-74
2022/10/31 07:47:49;;;;;;;27.65;13.75;;;8.70;99.90;;;;;;5077868;28;20451;-74
2022/10/31 07:50:19;;;;;;;31.83;14.60;;;8.70;99.90;;;;;;5078368;28;20031;-74
2022/10/31 07:52:46;;;;;;;33.45;15.20;;;8.80;99.90;;;;;;5077656;28;20025;-74
2022/10/31 07:55:14;;;;;;;36.00;15.80;;;8.90;99.90;;;;;;5077727;28;20408;-74
2022/10/31 07:57:42;;;;;;;37.05;15.88;;;9.00;99.90;;;;;;5077486;28;20051;-74
2022/10/31 08:00:11;;;;;;;32.42;15.02;;;9.10;99.90;;;;;;5077935;28;20371;-74
2022/10/31 08:02:38;;;;;;;39.17;17.45;;;9.10;99.90;;;;;;5077528;28;20456;-74
2022/10/31 08:05:06;;;;;;;37.35;16.20;;;9.20;99.90;;;;;;5078092;28;20392;-74
2022/10/31 08:07:37;;;;;;;31.25;16.10;;;9.30;99.90;;;;;;5059527;28;20064;-74
2022/10/31 08:10:06;;;;;;;34.50;16.00;;;9.40;99.90;;;;;;5077520;28;20056;-74
2022/10/31 08:12:33;;;;;;;41.78;16.88;;;9.40;99.90;;;;;;5077246;28;20020;-74
2022/10/31 08:15:01;;;;;;;56.45;17.33;;;9.50;99.90;;;;;;5077804;28;20103;-73
2022/10/31 08:17:38;;;;;;;47.67;20.70;;;9.60;99.90;;;;;;5077224;28;20013;-74
2022/10/31 08:20:06;;;;;;;48.25;18.92;;;9.70;99.90;;;;;;5077383;28;20024;-75
2022/10/31 08:22:33;;;;;;;46.25;18.80;;;9.80;99.90;;;;;;5077419;28;20078;-75
2022/10/31 08:25:01;;;;;;;51.35;19.05;;;9.90;99.90;;;;;;5077152;28;20388;-74
2022/10/31 08:27:28;;;;;;;65.45;20.88;;;10.00;99.90;;;;;;5059844;28;20028;-73
2022/10/31 08:29:55;;;;;;;108.28;24.55;;;10.10;99.90;;;;;;5077540;28;20115;-74
2022/10/31 08:32:23;;;;;;;81.05;21.05;;;10.30;99.90;;;;;;5076891;28;20024;-74
2022/10/31 08:34:50;;;;;;;44.00;18.10;;;10.40;99.90;;;;;;5076959;28;20044;-74
2022/10/31 08:37:19;;;;;;;32.47;16.90;;;10.50;99.90;;;;;;5076869;28;20017;-74
2022/10/31 08:39:47;;;;;;;35.25;17.20;;;10.70;99.90;;;;;;5077635;28;20033;-73
2022/10/31 08:42:15;;;;;;;37.38;16.77;;;10.80;99.90;;;;;;5077101;28;20029;-74
2022/10/31 08:44:42;;;;;;;49.53;18.00;;;10.90;99.90;;;;;;5077058;28;20028;-73
2022/10/31 08:47:09;;;;;;;48.88;20.33;;;11.00;99.90;;;;;;5077330;28;20021;-73
2022/10/31 08:49:37;;;;;;;43.35;17.45;;;11.10;99.90;;;;;;5077189;28;20416;-73
2022/10/31 08:52:05;;;;;;;43.58;17.92;;;11.20;99.90;;;;;;5076729;28;20035;-74
2022/10/31 08:54:32;;;;;;;46.80;20.02;;;11.40;99.90;;;;;;5077172;28;20038;-74
2022/10/31 08:57:00;;;;;;;36.28;17.73;;;11.50;99.90;;;;;;5076401;28;20123;-74
2022/10/31 08:59:27;;;;;;;51.28;19.42;;;11.60;99.90;;;;;;5076701;28;20328;-74
2022/10/31 09:01:54;;;;;;;39.67;18.08;;;11.70;99.90;;;;;;5076889;28;20086;-72
2022/10/31 09:04:23;;;;;;;48.58;20.17;;;11.80;99.90;;;;;;5076591;28;20413;-73
2022/10/31 09:06:50;;;;;;;33.42;16.73;;;11.90;99.90;;;;;;5058760;28;20071;-73
2022/10/31 09:09:17;;;;;;;37.85;17.42;;;12.00;99.90;;;;;;5076701;28;20324;-73
2022/10/31 09:11:45;;;;;;;33.30;17.65;;;12.10;99.90;;;;;;5076477;28;20020;-73
2022/10/31 09:14:13;;;;;;;32.53;17.85;;;12.20;99.90;;;;;;5077025;28;20370;-73
2022/10/31 09:16:40;;;;;;;38.17;17.52;;;12.30;99.90;;;;;;5076406;28;20020;-73
2022/10/31 09:19:08;;;;;;;42.85;17.98;;;12.40;99.90;;;;;;5076306;28;20021;-73
2022/10/31 09:21:35;;;;;;;32.95;17.90;;;12.50;99.90;;;;;;5076424;28;20500;-73
2022/10/31 09:24:02;;;;;;;41.92;17.73;;;12.60;99.90;;;;;;5076355;28;20028;-73
2022/10/31 09:26:30;;;;;;;35.17;18.17;;;12.70;99.90;;;;;;5076637;28;20099;-73
2022/10/31 09:28:58;;;;;;;34.70;17.63;;;12.80;99.90;;;;;;5076558;28;20024;-73
2022/10/31 09:31:26;;;;;;;42.03;17.80;;;12.90;99.90;;;;;;5076809;28;20021;-73
2022/10/31 09:33:54;;;;;;;37.58;15.93;;;13.00;99.90;;;;;;5076503;28;20036;-73
2022/10/31 09:36:22;;;;;;;31.00;17.85;;;13.10;99.90;;;;;;5058388;28;20021;-73
2022/10/31 09:38:51;;;;;;;29.35;14.95;;;13.10;99.90;;;;;;5076441;28;20050;-74
2022/10/31 09:42:10;;;;;;;35.10;16.50;;;13.20;99.90;;;;;;5077055;28;20312;-74
2022/10/31 09:45:02;;;;;;;33.70;16.80;;;13.30;99.90;;;;;;5014950;28;20026;-72
2022/10/31 09:47:47;;;;;;;32.40;15.77;;;13.30;99.90;;;;;;5076429;28;20016;-72
2022/10/31 09:50:27;;;;;;;35.40;16.63;;;13.40;99.90;;;;;;5076900;28;20419;-75
2022/10/31 09:53:18;;;;;;;33.58;16.65;;;13.50;99.90;;;;;;5076088;28;20437;-74
2022/10/31 09:55:48;;;;;;;37.90;16.88;;;13.50;99.90;;;;;;5076089;28;20029;-74
2022/10/31 09:58:25;;;;;;;42.83;18.25;;;13.60;99.90;;;;;;5075986;28;20337;-75
2022/10/31 10:00:54;;;;;;;35.80;16.80;;;13.70;99.90;;;;;;5076541;28;20107;-75
2022/10/31 10:03:45;;;;;;;35.88;16.50;;;13.80;99.90;;;;;;5058292;28;20032;-75
2022/10/31 10:06:23;;;;;;;34.45;16.90;;;13.90;99.90;;;;;;5076224;28;20412;-74
2022/10/31 10:08:50;;;;;;;30.73;16.75;;;14.00;99.90;;;;;;5076159;28;20030;-74
2022/10/31 10:11:35;;;;;;;37.35;15.35;;;14.10;99.90;;;;;;5058862;28;20020;-75
2022/10/31 10:14:03;;;;;;;36.50;17.02;;;14.30;99.90;;;;;;5076142;28;20078;-75
2022/10/31 10:16:43;;;;;;;31.60;17.23;;;14.40;99.90;;;;;;5075854;28;20297;-73
2022/10/31 10:19:30;;;;;;;31.48;17.40;;;14.50;99.90;;;;;;5076284;28;20021;-73
2022/10/31 10:22:32;;;;;;;30.10;15.95;;;14.70;99.90;;;;;;5076392;28;20024;-74
2022/10/31 10:25:21;;;;;;;32.00;15.88;;;14.80;99.90;;;;;;5075849;28;20016;-74
2022/10/31 10:28:13;;;;;;;29.85;14.18;;;14.90;99.90;;;;;;5076298;28;20059;-75
2022/10/31 10:30:51;;;;;;;25.25;15.57;;;15.10;99.90;;;;;;5076374;28;20031;-74
2022/10/31 10:33:38;;;;;;;29.60;15.68;;;15.10;99.90;;;;;;5079199;28;20023;-74
2022/10/31 10:36:13;;;;;;;27.98;14.50;;;15.30;99.90;;;;;;5079250;28;20381;-73
2022/10/31 10:38:47;;;;;;;23.83;13.48;;;15.40;99.90;;;;;;5061515;28;20324;-73
2022/10/31 10:41:20;;;;;;;28.83;15.57;;;15.50;99.90;;;;;;5079457;28;20088;-73
2022/10/31 10:43:51;;;;;;;22.92;13.05;;;15.60;99.90;;;;;;5079406;28;20482;-73
2022/10/31 10:49:46;;;;;;;27.38;13.63;;;15.80;99.90;;;;;;5079262;28;20039;-73
2022/10/31 10:52:46;;;;;;;26.35;14.23;;;15.90;99.90;;;;;;5079197;28;20017;-73
2022/10/31 10:55:37;;;;;;;28.20;12.25;;;16.00;99.90;;;;;;5078912;28;20024;-73
2022/10/31 10:58:09;;;;;;;23.95;12.85;;;16.20;99.90;;;;;;5078360;28;20040;-72
2022/10/31 11:00:49;;;;;;;22.50;12.27;;;16.30;99.90;;;;;;5078710;28;20020;-72
2022/10/31 11:03:18;;;;;;;28.25;12.70;;;16.50;99.90;;;;;;5079200;28;20059;-73
2022/10/31 11:06:01;;;;;;;29.35;12.13;;;16.60;99.90;;;;;;5079257;28;20034;-73
2022/10/31 11:08:34;;;;;;;28.63;12.07;;;16.70;99.90;;;;;;5078671;28;20100;-73
2022/10/31 11:11:32;;;;;;;22.75;12.48;;;16.90;99.90;;;;;;5078838;28;20055;-73
2022/10/31 11:14:17;;;;;;;23.77;12.70;;;17.00;99.90;;;;;;5078957;28;20052;-73
2022/10/31 11:16:48;;;;;;;28.08;12.88;;;17.10;99.90;;;;;;5078785;28;20321;-73
2022/10/31 11:19:20;;;;;;;22.10;10.80;;;17.10;99.90;;;;;;5078479;28;20099;-73
2022/10/31 11:21:48;;;;;;;21.08;10.43;;;17.20;99.90;;;;;;5078404;28;20028;-73
2022/10/31 11:24:27;;;;;;;17.65;8.30;;;17.30;99.90;;;;;;5061500;28;20017;-73
2022/10/31 11:27:15;;;;;;;23.25;8.60;;;17.30;99.90;;;;;;5079085;28;20056;-73
2022/10/31 11:29:43;;;;;;;20.98;9.98;;;17.40;99.90;;;;;;5078288;28;20305;-73
2022/10/31 11:32:21;;;;;;;18.25;8.35;;;17.40;99.90;;;;;;5078533;28;20121;-73
2022/10/31 11:34:55;;;;;;;13.80;8.18;;;17.50;99.90;;;;;;5078243;28;20074;-73
2022/10/31 11:37:35;;;;;;;19.17;7.75;;;17.60;99.90;;;;;;5078141;28;20032;-73
2022/10/31 11:40:07;;;;;;;18.38;8.07;;;17.60;99.90;;;;;;5078105;28;20048;-73
2022/10/31 11:42:42;;;;;;;18.80;9.00;;;17.60;99.90;;;;;;5077735;28;20460;-73
2022/10/31 11:45:33;;;;;;;20.00;9.18;;;17.70;99.90;;;;;;5077921;28;20137;-72
2022/10/31 11:48:02;;;;;;;16.83;9.30;;;17.70;99.90;;;;;;5077889;28;20106;-72
2022/10/31 11:50:41;;;;;;;18.92;9.07;;;17.80;99.90;;;;;;5077693;28;20176;-73
2022/10/31 11:53:37;;;;;;;17.15;8.73;;;17.80;99.90;;;;;;5078271;28;20025;-73
2022/10/31 11:56:16;;;;;;;18.50;8.98;;;17.90;99.90;;;;;;5078308;28;20024;-73
2022/10/31 11:58:56;;;;;;;21.55;7.93;;;18.00;99.90;;;;;;5077389;28;20131;-73
2022/10/31 12:01:29;;;;;;;13.95;6.40;;;18.00;99.90;;;;;;5077592;28;20424;-73
2022/10/31 12:04:12;;;;;;;16.40;6.93;;;18.10;99.90;;;;;;5059878;28;20024;-73
2022/10/31 12:06:42;;;;;;;15.55;6.15;;;18.20;99.90;;;;;;5077445;28;20020;-73
2022/10/31 12:09:25;;;;;;;13.60;6.30;;;18.30;99.90;;;;;;5077614;28;20040;-73
2022/10/31 12:12:11;;;;;;;15.50;5.80;;;18.40;99.90;;;;;;5077419;28;20032;-73
2022/10/31 12:15:00;;;;;;;12.75;4.97;;;18.50;99.90;;;;;;5077281;28;20043;-73
2022/10/31 12:17:50;;;;;;;14.43;5.18;;;18.50;99.90;;;;;;5078042;28;20017;-73
2022/10/31 12:20:24;;;;;;;11.45;4.63;;;18.50;99.90;;;;;;5077795;28;20368;-73
2022/10/31 12:23:04;;;;;;;14.90;5.10;;;18.40;99.90;;;;;;5077214;28;20324;-72
2022/10/31 12:25:45;;;;;;;18.48;5.43;;;18.40;99.90;;;;;;5059401;28;20120;-73
2022/10/31 12:28:34;;;;;;;10.15;6.10;;;18.30;99.90;;;;;;5059509;28;20031;-73
2022/10/31 12:31:10;;;;;;;18.48;7.25;;;18.30;99.90;;;;;;5077148;28;20436;-73
2022/10/31 12:33:53;;;;;;;27.02;9.02;;;18.20;99.90;;;;;;5076954;28;20420;-73
2022/10/31 12:36:37;;;;;;;23.48;9.48;;;18.20;99.90;;;;;;5077254;28;20021;-73
2022/10/31 12:39:22;;;;;;;51.45;12.50;;;18.10;99.90;;;;;;5077646;28;20024;-73
2022/10/31 12:42:17;;;;;;;176.73;22.83;;;18.10;99.90;;;;;;5076821;28;20020;-72
2022/10/31 12:45:14;;;;;;;77.72;14.65;;;18.00;99.90;;;;;;5076813;28;20054;-73
2022/10/31 12:48:00;;;;;;;35.25;11.23;;;18.00;99.90;;;;;;5077518;28;20044;-73
2022/10/31 12:50:34;;;;;;;32.47;9.67;;;18.00;99.90;;;;;;5077323;28;20103;-75
2022/10/31 12:53:29;;;;;;;20.77;8.23;;;18.00;99.90;;;;;;5076567;28;20017;-72
2022/10/31 12:56:14;;;;;;;23.67;7.28;;;18.00;99.90;;;;;;5066704;28;20420;-73
2022/10/31 12:58:56;;;;;;;21.85;9.20;;;18.00;99.90;;;;;;5076537;28;20337;-74
2022/10/31 13:01:46;;;;;;;16.92;7.82;;;18.00;99.90;;;;;;5076546;28;20078;-73
2022/10/31 13:04:37;;;;;;;22.60;8.02;;;18.00;99.90;;;;;;5076668;28;20025;-73
2022/10/31 13:07:15;;;;;;;14.23;6.82;;;18.00;99.90;;;;;;5076889;28;20104;-73
2022/10/31 13:10:03;;;;;;;14.93;7.45;;;18.00;99.90;;;;;;5076868;28;20373;-72
2022/10/31 13:12:32;;;;;;;18.08;8.40;;;18.00;99.90;;;;;;5077008;28;20020;-72
2022/10/31 13:15:16;;;;;;;19.23;8.68;;;18.00;99.90;;;;;;5076647;28;20029;-72